tititudorancea.com
Station Historical Data
Daily Summary for January 26, 2018 Units:  Metric    English   Both
« Previous Day
Next Day »
Daily Weekly Monthly Yearly Custom
  High: Low: Average:
Temperature: -17.8 °C 15.2 °C 23.3 °C
Dew Point: -17.8 °C 13.4 °C 16.1 °C
Humidity: Humidity % 36 % 67 %
Wind Speed: 0 km/h 0 km/h 7.2 km/h
Wind Gust: 0 km/h - -
Wind:- - SSW
Pressure: 0 hPa 1005.3 hPa -
Precipitation: 0 mm    
Historical Graphs
 
 
Ararat weather Find more about Weather in Ararat, AU


 



 


Tabular Data for January 26, 2018
Time Temperature Dew Point Pressure Wind Wind Speed Wind Gust Humidity Rainfall Rate (Hourly)
-17.8 °C -17.8 °C 0 hPa Calm     Humidity % 0 mm
00:00 20 °C 13.4 °C 1007.3 hPa South 7.2 km/h 13 km/h 66 % 0 mm
00:05 19.9 °C 13.6 °C 1007.3 hPa North 8 km/h 11.1 km/h 67 % 0 mm
00:10 19.7 °C 13.7 °C 1007.3 hPa South 12.1 km/h 16.7 km/h 68 % 0 mm
00:15 19.7 °C 13.7 °C 1007.7 hPa South 10.3 km/h 14.8 km/h 68 % 0 mm
00:20 19.6 °C 13.8 °C 1007.7 hPa South 7.1 km/h 16.7 km/h 69 % 0 mm
00:25 19.5 °C 13.7 °C 1007.7 hPa South 7.2 km/h 11.1 km/h 69 % 0 mm
00:30 19.4 °C 13.6 °C 1007.7 hPa SSW 9 km/h 13 km/h 69 % 0 mm
00:35 19.3 °C 13.7 °C 1007.3 hPa SSW 7.4 km/h 7.4 km/h 70 % 0 mm
00:40 19.2 °C 13.8 °C 1007.3 hPa North 6 km/h 7.4 km/h 71 % 0 mm
00:45 19.1 °C 13.7 °C 1007.3 hPa SSW 7.9 km/h 11.1 km/h 71 % 0 mm
00:50 18.9 °C 13.7 °C 1007.3 hPa SSW 7.4 km/h 11.1 km/h 72 % 0 mm
00:55 18.9 °C 13.7 °C 1007.3 hPa SSW 6.9 km/h 9.3 km/h 72 % 0 mm
01:00 18.8 °C 13.9 °C 1007.3 hPa SSW 9.3 km/h 13 km/h 73 % 0 mm
01:05 18.8 °C 13.8 °C 1007.3 hPa North 10.1 km/h 12.9 km/h 73 % 0 mm
01:10 18.7 °C 13.7 °C 1007.3 hPa North 11.1 km/h 13 km/h 73 % 0 mm
01:15 18.6 °C 13.6 °C 1007.3 hPa SSW 10.6 km/h 13 km/h 73 % 0 mm
01:20 18.4 °C 13.7 °C 1007.3 hPa SSW 8.7 km/h 13 km/h 74 % 0 mm
01:25 18.4 °C 13.7 °C 1007.3 hPa North 6.1 km/h 11.1 km/h 74 % 0 mm
01:30 18.3 °C 13.8 °C 1007 hPa SSW 3.5 km/h 5.6 km/h 75 % 0 mm
01:35 18.2 °C 13.7 °C 1007.3 hPa SSW 6 km/h 7.4 km/h 75 % 0 mm
01:40 18.2 °C 13.9 °C 1007 hPa SSW 6 km/h 9.3 km/h 76 % 0 mm
01:45 18.1 °C 13.8 °C 1007 hPa SSW 5.5 km/h 9.3 km/h 76 % 0 mm
01:50 18 °C 13.9 °C 1007 hPa SSW 4 km/h 7.4 km/h 77 % 0 mm
01:55 18 °C 14.1 °C 1007 hPa SSW 5.6 km/h 7.4 km/h 78 % 0 mm
02:00 17.9 °C 14 °C 1007 hPa SSW 6.1 km/h 7.4 km/h 78 % 0 mm
02:05 17.9 °C 14 °C 1007 hPa SSW 3.9 km/h 5.6 km/h 78 % 0 mm
02:10 17.8 °C 14.2 °C 1007 hPa North 5.5 km/h 5.6 km/h 79 % 0 mm
02:15 17.8 °C 14.2 °C 1007 hPa SSW 3.4 km/h 9.3 km/h 79 % 0 mm
02:20 17.8 °C 14.2 °C 1007 hPa SSW 3.5 km/h 5.6 km/h 79 % 0 mm
02:25 17.8 °C 14.1 °C 1007 hPa SSW 3.9 km/h 7.4 km/h 79 % 0 mm
02:30 17.7 °C 14.2 °C 1007 hPa SSW 3.9 km/h 7.4 km/h 80 % 0 mm
02:35 17.7 °C 14.2 °C 1006.7 hPa SSW 4 km/h 7.4 km/h 80 % 0 mm
02:40 17.6 °C 14.3 °C 1007 hPa SSW 3.5 km/h 5.6 km/h 81 % 0 mm
02:45 17.6 °C 14.3 °C 1006.7 hPa North 4.5 km/h 5.6 km/h 81 % 0 mm
02:50 17.6 °C 14.4 °C 1006.7 hPa North 6.4 km/h 7.4 km/h 82 % 0 mm
02:55 17.5 °C 14.4 °C 1006.7 hPa SSW 7.1 km/h 7.4 km/h 82 % 0 mm
03:00 17.4 °C 14.3 °C 1006.7 hPa SSW 3.2 km/h 5.6 km/h 82 % 0 mm
03:05 17.3 °C 14.4 °C 1006.7 hPa SSW 5.6 km/h 6.4 km/h 83 % 0 mm
03:10 17.3 °C 14.4 °C 1006.7 hPa North 3.1 km/h 5.6 km/h 83 % 0 mm
03:15 17.2 °C 14.3 °C 1006.7 hPa Calm   1.6 km/h 83 % 0 mm
03:20 17.2 °C 14.3 °C 1006.7 hPa Calm     83 % 0 mm
03:25 17.1 °C 14.4 °C 1006.7 hPa Calm   1.9 km/h 84 % 0 mm
03:30 17 °C 14.3 °C 1006.7 hPa Calm     84 % 0 mm
03:35 16.9 °C 14.2 °C 1006.7 hPa North 1.6 km/h 3.7 km/h 84 % 0 mm
03:40 16.8 °C 14.3 °C 1006.3 hPa SSW 2.7 km/h 5.6 km/h 85 % 0 mm
03:45 16.8 °C 14.2 °C 1006.3 hPa SSW 3.7 km/h 3.7 km/h 85 % 0 mm
03:50 16.7 °C 14.4 °C 1006.3 hPa SSW 2.4 km/h 5.6 km/h 86 % 0 mm
03:55 16.7 °C 14.4 °C 1006.3 hPa Calm   1.9 km/h 86 % 0 mm
04:00 16.7 °C 14.3 °C 1006.3 hPa Calm     86 % 0 mm
04:05 16.6 °C 14.3 °C 1006.3 hPa Calm   1.9 km/h 86 % 0 mm
04:10 16.6 °C 14.2 °C 1006.3 hPa SSW 2.4 km/h 3.2 km/h 86 % 0 mm
04:15 16.4 °C 14.1 °C 1006.7 hPa North 0.3 km/h 3.7 km/h 86 % 0 mm
04:20 16.4 °C 14.2 °C 1006.7 hPa Calm     87 % 0 mm
04:25 16.3 °C 14.1 °C 1006.7 hPa Calm     87 % 0 mm
04:30 16.2 °C 14.1 °C 1006.7 hPa Calm     87 % 0 mm
04:35 16.2 °C 14 °C 1006.7 hPa Calm     87 % 0 mm
04:40 16.1 °C 14.1 °C 1006.7 hPa SSW 1.3 km/h 1.6 km/h 88 % 0 mm
04:45 16.1 °C 14.1 °C 1006.7 hPa SSW 0.6 km/h 3.7 km/h 88 % 0 mm
04:50 16.1 °C 14.1 °C 1006.7 hPa SSW 0.5 km/h 3.2 km/h 88 % 0 mm
04:55 15.9 °C 13.9 °C 1006.7 hPa North 1.9 km/h 5.6 km/h 88 % 0 mm
05:00 15.9 °C 14.1 °C 1006.7 hPa SSW 1 km/h 5.6 km/h 89 % 0 mm
05:05 15.9 °C 14.1 °C 1006.7 hPa SSW 2.7 km/h 5.6 km/h 89 % 0 mm
05:10 15.8 °C 13.9 °C 1006.7 hPa SSW 4 km/h 5.6 km/h 89 % 0 mm
05:16 15.7 °C 14.1 °C 1006.7 hPa SSW 4.7 km/h 7.4 km/h 90 % 0 mm
05:21 15.6 °C 13.7 °C 1006.7 hPa North 1.9 km/h 5.6 km/h 89 % 0 mm
05:26 15.4 °C 13.8 °C 1006.7 hPa Calm     90 % 0 mm
05:31 15.3 °C 14.1 °C 1006.7 hPa Calm     92 % 0 mm
05:35 15.3 °C 13.7 °C 1006.7 hPa North 3.4 km/h 5.6 km/h 90 % 0 mm
05:40 15.2 °C 13.8 °C 1006.7 hPa SSW 2.7 km/h 5.6 km/h 91 % 0 mm
05:46 15.2 °C 13.8 °C 1006.7 hPa North 0.3 km/h 3.7 km/h 91 % 0 mm
05:51 15.2 °C 13.8 °C 1007 hPa North 2.9 km/h 5.6 km/h 91 % 0 mm
05:56 15.3 °C 13.8 °C 1007 hPa North 4.3 km/h 5.6 km/h 91 % 0 mm
06:01 15.3 °C 14.1 °C 1007 hPa North 6.1 km/h 8 km/h 92 % 0 mm
06:06 15.3 °C 14.1 °C 1007 hPa SSW 7.9 km/h 9.3 km/h 92 % 0 mm
06:10 15.3 °C 14 °C 1007.3 hPa SSW 4.8 km/h 6.4 km/h 92 % 0 mm
06:15 15.2 °C 13.9 °C 1007.3 hPa SSW 5.8 km/h 9.3 km/h 92 % 0 mm
06:17 15.2 °C 13.9 °C 1007.3 hPa SSW 7.6 km/h 11.1 km/h 92 % 0 mm
06:22 15.2 °C 13.9 °C 1007.3 hPa SSW 6.1 km/h 9.3 km/h 92 % 0 mm
06:27 15.2 °C 14.1 °C 1007.3 hPa SSW 8.4 km/h 11.1 km/h 93 % 0 mm
06:32 15.2 °C 14.1 °C 1007.3 hPa North 7.2 km/h 9.3 km/h 93 % 0 mm
06:37 15.2 °C 14.1 °C 1007.7 hPa North 4.2 km/h 5.6 km/h 93 % 0 mm
06:42 15.2 °C 14.1 °C 1007.7 hPa North 4.8 km/h 7.4 km/h 93 % 0 mm
06:47 15.2 °C 14.3 °C 1007.7 hPa SSW 7.2 km/h 8 km/h 94 % 0 mm
06:52 15.2 °C 14.3 °C 1007.7 hPa North 10 km/h 14.8 km/h 94 % 0 mm
06:57 15.2 °C 14.3 °C 1007.7 hPa SSW 7.4 km/h 9.7 km/h 94 % 0 mm
07:02 15.2 °C 14.3 °C 1007.7 hPa North 1 km/h 5.6 km/h 94 % 0 mm
07:07 15.3 °C 14.3 °C 1008 hPa SSW 4.5 km/h 5.6 km/h 94 % 0 mm
07:12 15.3 °C 14.3 °C 1008 hPa North 7.1 km/h 9.3 km/h 94 % 0 mm
07:17 15.3 °C 14.3 °C 1008 hPa SSW 7.2 km/h 9.3 km/h 94 % 0 mm
07:22 15.3 °C 14.4 °C 1008 hPa SSW 5.6 km/h 5.6 km/h 94 % 0 mm
07:27 15.4 °C 14.4 °C 1008 hPa North 3.9 km/h 5.6 km/h 94 % 0 mm
07:32 15.4 °C 14.5 °C 1008 hPa North 4.8 km/h 7.4 km/h 94 % 0 mm
07:37 15.5 °C 14.6 °C 1007.7 hPa SSW 4.3 km/h 6.4 km/h 94 % 0 mm
07:42 15.5 °C 14.6 °C 1008 hPa North 4 km/h 7.4 km/h 94 % 0 mm
07:47 15.6 °C 14.8 °C 1008 hPa North 6 km/h 9.3 km/h 95 % 0 mm
07:52 15.6 °C 14.8 °C 1008 hPa North 3.5 km/h 7.4 km/h 95 % 0 mm
07:57 15.7 °C 14.8 °C 1008 hPa North 2.9 km/h 7.4 km/h 94 % 0 mm
08:02 15.8 °C 14.8 °C 1008 hPa SW 3.1 km/h 5.6 km/h 94 % 0 mm
08:07 15.9 °C 14.9 °C 1008 hPa SW 4.7 km/h 7.4 km/h 94 % 0 mm
08:12 15.9 °C 15 °C 1008 hPa SW 5.6 km/h 9.7 km/h 94 % 0 mm
08:17 16 °C 15.1 °C 1008 hPa SSW 3.9 km/h 9.3 km/h 94 % 0 mm
08:22 16.2 °C 15.2 °C 1008 hPa SSW 3.1 km/h 5.6 km/h 94 % 0 mm
08:27 16.3 °C 15.4 °C 1008 hPa SSW 5 km/h 7.4 km/h 94 % 0 mm
08:32 16.4 °C 15.5 °C 1008 hPa SSW 5.5 km/h 7.4 km/h 94 % 0 mm
08:37 16.7 °C 15.7 °C 1008 hPa SSW 3.4 km/h 9.7 km/h 94 % 0 mm
08:43 16.8 °C 15.8 °C 1008 hPa North 7.4 km/h 7.4 km/h 94 % 0 mm
08:48 17 °C 16 °C 1008 hPa North 5 km/h 7.4 km/h 94 % 0 mm
08:53 17.2 °C 16 °C 1008 hPa SSW 3.7 km/h 5.6 km/h 93 % 0 mm
08:58 17.3 °C 16 °C 1008 hPa North 12.7 km/h 16.7 km/h 92 % 0 mm
09:03 17.5 °C 16.2 °C 1008 hPa SSW 5 km/h 9.3 km/h 92 % 0 mm
09:08 17.7 °C 16.2 °C 1008 hPa SSW 11.3 km/h 14.5 km/h 91 % 0 mm
09:13 17.9 °C 16.2 °C 1008 hPa North 6.6 km/h 11.1 km/h 90 % 0 mm
09:18 18.3 °C 16.6 °C 1008 hPa SSW 11.7 km/h 14.8 km/h 90 % 0 mm
09:23 18.6 °C 16.6 °C 1008.4 hPa SSW 6.8 km/h 7.4 km/h 88 % 0 mm
09:28 18.9 °C 16.8 °C 1008 hPa SSW 7.9 km/h 11.1 km/h 88 % 0 mm
09:33 19.3 °C 16.9 °C 1008 hPa SSW 7.6 km/h 11.1 km/h 86 % 0 mm
09:38 19.7 °C 16.9 °C 1008 hPa SSW 9.3 km/h 11.1 km/h 84 % 0 mm
09:43 19.9 °C 16.9 °C 1008 hPa SSW 7.6 km/h 11.3 km/h 83 % 0 mm
09:48 20.2 °C 17 °C 1008 hPa South 5.6 km/h 11.1 km/h 82 % 0 mm
09:53 20.2 °C 16.8 °C 1008 hPa SSW 4.7 km/h 7.4 km/h 81 % 0 mm
09:58 20.9 °C 17.5 °C 1007.7 hPa SSE 9 km/h 13 km/h 81 % 0 mm
10:03 21.5 °C 17.5 °C 1007.7 hPa SSE 7.6 km/h 9.3 km/h 78 % 0 mm
10:08 21.8 °C 17.3 °C 1007.7 hPa SSE 7.6 km/h 11.3 km/h 76 % 0 mm
10:13 21.8 °C 17.3 °C 1007.7 hPa South 6.9 km/h 12.9 km/h 76 % 0 mm
10:18 21.8 °C 17.4 °C 1007.7 hPa South 8.5 km/h 11.1 km/h 76 % 0 mm
10:23 22.1 °C 17.4 °C 1007.7 hPa South 5.1 km/h 7.4 km/h 75 % 0 mm
10:28 22.6 °C 17.7 °C 1007.7 hPa South 7.7 km/h 9.3 km/h 74 % 0 mm
10:33 23 °C 17.9 °C 1007.7 hPa South 4.5 km/h 7.4 km/h 73 % 0 mm
10:38 23.4 °C 17.7 °C 1007.7 hPa South 10.6 km/h 16.7 km/h 70 % 0 mm
10:43 23.8 °C 17.7 °C 1007.7 hPa South 6.9 km/h 13 km/h 69 % 0 mm
10:48 24.3 °C 17.8 °C 1007.7 hPa South 7.2 km/h 13 km/h 67 % 0 mm
10:53 24.9 °C 17.8 °C 1007.7 hPa South 12.1 km/h 14.8 km/h 65 % 0 mm
10:58 25.1 °C 18 °C 1007.7 hPa South 7.1 km/h 11.1 km/h 65 % 0 mm
11:03 25.4 °C 18.1 °C 1007.3 hPa South 6.3 km/h 9.7 km/h 64 % 0 mm
11:08 25.8 °C 18.2 °C 1007.3 hPa South 5.6 km/h 9.7 km/h 63 % 0 mm
11:13 26.3 °C 18.4 °C 1007.3 hPa South 2.4 km/h 7.4 km/h 62 % 0 mm
11:18 26.7 °C 18.3 °C 1007.3 hPa South 7.7 km/h 11.1 km/h 60 % 0 mm
11:23 26.8 °C 18.1 °C 1007.3 hPa SSW 7.2 km/h 11.1 km/h 59 % 0 mm
11:28 26.8 °C 18.1 °C 1007.3 hPa SSW 3.9 km/h 9.3 km/h 59 % 0 mm
11:33 27.2 °C 18.2 °C 1007.3 hPa SSW 6.3 km/h 11.1 km/h 58 % 0 mm
11:38 27.7 °C 18.2 °C 1007.3 hPa South 8.2 km/h 9.7 km/h 56 % 0 mm
11:43 28.3 °C 18.1 °C 1007.3 hPa South 7.7 km/h 13 km/h 54 % 0 mm
11:48 28.3 °C 18.1 °C 1007.3 hPa South 2.9 km/h 5.6 km/h 54 % 0 mm
11:53 28.7 °C 17.8 °C 1007.3 hPa South 7.2 km/h 7.4 km/h 52 % 0 mm
11:58 28.8 °C 17.6 °C 1007.3 hPa SW 10.6 km/h 13 km/h 51 % 0 mm
12:03 28.8 °C 17.7 °C 1007.3 hPa SW 0.6 km/h 1.9 km/h 51 % 0 mm
12:08 29.2 °C 17.7 °C 1007.3 hPa SW 6.4 km/h 9.3 km/h 50 % 0 mm
12:13 29.3 °C 17.8 °C 1007.3 hPa SW 0.3 km/h 1.9 km/h 50 % 0 mm
12:18 29.9 °C 17.7 °C 1007 hPa SW 3.1 km/h 5.6 km/h 48 % 0 mm
12:23 30.6 °C 18 °C 1007 hPa SSW 6.4 km/h 11.3 km/h 47 % 0 mm
12:28 30.7 °C 17.8 °C 1007 hPa South 3.7 km/h 9.3 km/h 46 % 0 mm
12:33 30.6 °C 17.7 °C 1006.7 hPa SSE 4.5 km/h 5.6 km/h 46 % 0 mm
12:38 30.9 °C 17.6 °C 1006.7 hPa SSE 6.1 km/h 8 km/h 45 % 0 mm
12:43 30.9 °C 17.6 °C 1006.7 hPa SSE 5 km/h 5.6 km/h 45 % 0 mm
12:48 31.3 °C 17.6 °C 1006.7 hPa SSE 0.3 km/h 3.7 km/h 44 % 0 mm
12:53 31.5 °C 17.4 °C 1006.7 hPa SSE 6.1 km/h 8 km/h 43 % 0 mm
12:58 31.5 °C 17.4 °C 1006.7 hPa SSE 5.6 km/h 7.4 km/h 43 % 0 mm
13:03 31.6 °C 17.1 °C 1006.7 hPa SSE 6.1 km/h 7.4 km/h 42 % 0 mm
13:08 31.4 °C 17.3 °C 1006.7 hPa SSE 2.9 km/h 6.4 km/h 43 % 0 mm
13:13 31.6 °C 17.1 °C 1006.7 hPa Calm     42 % 0 mm
13:18 31.6 °C 16.8 °C 1006.7 hPa SSE 3.1 km/h 5.6 km/h 41 % 0 mm
13:23 31.4 °C 16.9 °C 1006.7 hPa SSE 0.6 km/h 5.6 km/h 42 % 0 mm
13:28 31.7 °C 17.2 °C 1006.7 hPa SSE 1.3 km/h 3.7 km/h 42 % 0 mm
13:33 32.4 °C 16.7 °C 1006.3 hPa SSE 3.9 km/h 6.4 km/h 39 % 0 mm
13:38 32.7 °C 16.5 °C 1006.3 hPa SSE 5.8 km/h 9.3 km/h 38 % 0 mm
13:43 32.2 °C 16.9 °C 1006.3 hPa North 7.1 km/h 9.7 km/h 40 % 0 mm
13:48 32.3 °C 16.6 °C 1006.3 hPa SSW 5.3 km/h 7.4 km/h 39 % 0 mm
13:53 32.6 °C 16.8 °C 1006.3 hPa SSW 4.2 km/h 5.6 km/h 39 % 0 mm
13:58 33 °C 16.8 °C 1006.3 hPa SSW 7.7 km/h 16.7 km/h 38 % 0 mm
14:03 32.7 °C 16.5 °C 1006.3 hPa SSW 5 km/h 7.4 km/h 38 % 0 mm
14:08 32.7 °C 16.9 °C 1006.3 hPa South 11.4 km/h 16.7 km/h 39 % 0 mm
14:13 32.8 °C 16.7 °C 1006.3 hPa SSE 7.4 km/h 14.8 km/h 38 % 0 mm
14:18 32.9 °C 16.7 °C 1006.3 hPa SSE 7.1 km/h 9.3 km/h 38 % 0 mm
14:23 32.9 °C 16.7 °C 1006.3 hPa SSE 7.7 km/h 13 km/h 38 % 0 mm
14:28 32.8 °C 16.7 °C 1006.3 hPa SSE 4.7 km/h 11.1 km/h 38 % 0 mm
14:33 33 °C 16.8 °C 1006.3 hPa SSW 12.4 km/h 16.1 km/h 38 % 0 mm
14:38 32.7 °C 16.9 °C 1006 hPa WSW 9.3 km/h 13 km/h 39 % 0 mm
14:43 33.1 °C 16.9 °C 1006 hPa WSW 5.1 km/h 9.3 km/h 38 % 0 mm
14:48 33.3 °C 17.1 °C 1006 hPa West 8.2 km/h 11.3 km/h 38 % 0 mm
14:53 33.3 °C 16.7 °C 1006 hPa WSW 12.2 km/h 14.8 km/h 37 % 0 mm
14:58 33.6 °C 16.5 °C 1006 hPa SW 11.4 km/h 16.7 km/h 36 % 0 mm
15:03 33.6 °C 16.9 °C 1006 hPa SW 6.9 km/h 7.4 km/h 37 % 0 mm
15:08 33.4 °C 16.3 °C 1006 hPa SSW 8.4 km/h 11.1 km/h 36 % 0 mm
15:13 33.5 °C 16.4 °C 1006 hPa SSW 6.4 km/h 13 km/h 36 % 0 mm
15:18 33.3 °C 16.2 °C 1006 hPa North 9.7 km/h 18.5 km/h 36 % 0 mm
15:23 33.1 °C 16.4 °C 1006 hPa SSW 2.7 km/h 5.6 km/h 37 % 0 mm
15:28 33.2 °C 16.1 °C 1005.6 hPa SSW 2.4 km/h 3.7 km/h 36 % 0 mm
15:33 33.3 °C 16.2 °C 1005.6 hPa SSW 5.3 km/h 8 km/h 36 % 0 mm
15:38 33 °C 15.9 °C 1005.6 hPa SW 10.8 km/h 20.4 km/h 36 % 0 mm
15:43 32.8 °C 15.8 °C 1005.6 hPa WSW 13.4 km/h 14.8 km/h 36 % 0 mm
15:48 32.9 °C 15.8 °C 1005.6 hPa SSW 8.5 km/h 13 km/h 36 % 0 mm
15:53 32.8 °C 15.7 °C 1005.3 hPa SW 10.6 km/h 14.8 km/h 36 % 0 mm
15:58 32.8 °C 16.2 °C 1005.3 hPa WSW 12.2 km/h 22.2 km/h 37 % 0 mm
16:03 32.6 °C 16.8 °C 1005.3 hPa North 14.3 km/h 22.2 km/h 39 % 0 mm
16:08 32.4 °C 16.7 °C 1005.3 hPa SW 17.7 km/h 27.8 km/h 39 % 0 mm
16:13 32.1 °C 16.4 °C 1005.6 hPa SW 11.6 km/h 27.8 km/h 39 % 0 mm
16:18 31.8 °C 16.5 °C 1005.6 hPa SSW 10.9 km/h 18.5 km/h 40 % 0 mm
16:23 31.7 °C 16.8 °C 1005.6 hPa SSW 10.9 km/h 18.5 km/h 41 % 0 mm
16:28 31.6 °C 16.7 °C 1005.6 hPa SSW 17.9 km/h 24.1 km/h 41 % 0 mm
16:33 31.3 °C 16.8 °C 1005.6 hPa SSW 16.7 km/h 31.5 km/h 42 % 0 mm
16:38 30.9 °C 16.9 °C 1005.6 hPa SSW 19.2 km/h 31.5 km/h 43 % 0 mm
16:43 30.7 °C 16.7 °C 1005.6 hPa North 17.4 km/h 27.4 km/h 43 % 0 mm
16:48 30.5 °C 16.9 °C 1005.3 hPa SW 13.7 km/h 20.4 km/h 44 % 0 mm
16:53 30.4 °C 16.8 °C 1005.6 hPa SSE 10.8 km/h 16.7 km/h 44 % 0 mm
16:58 30.4 °C 16.8 °C 1005.6 hPa SSW 16.7 km/h 24.1 km/h 44 % 0 mm
17:03 30.3 °C 16.7 °C 1005.6 hPa South 13.2 km/h 22.2 km/h 44 % 0 mm
17:08 30.3 °C 17 °C 1005.6 hPa South 12.7 km/h 18.5 km/h 45 % 0 mm
17:13 30.2 °C 16.9 °C 1005.6 hPa SSW 17.2 km/h 25.9 km/h 45 % 0 mm
17:18 30.2 °C 16.9 °C 1006 hPa South 13 km/h 18.5 km/h 45 % 0 mm
17:23 30.1 °C 17.2 °C 1006 hPa South 7.4 km/h 14.8 km/h 46 % 0 mm
17:28 30.1 °C 16.8 °C 1006 hPa South 9.2 km/h 17.7 km/h 45 % 0 mm
17:33 30 °C 17.1 °C 1006.3 hPa SSE 8.9 km/h 12.9 km/h 46 % 0 mm
17:38 30 °C 17.1 °C 1006.3 hPa SSE 9.7 km/h 16.7 km/h 46 % 0 mm
17:43 29.9 °C 17 °C 1006.3 hPa South 16.7 km/h 18.5 km/h 46 % 0 mm
17:48 29.8 °C 16.9 °C 1006.3 hPa SSE 13.5 km/h 16.7 km/h 46 % 0 mm
17:53 29.7 °C 17.2 °C 1006.3 hPa SSE 12.2 km/h 18.5 km/h 47 % 0 mm
17:58 29.6 °C 17.4 °C 1006.3 hPa SSE 10.8 km/h 24.1 km/h 48 % 0 mm
18:03 29.4 °C 17.6 °C 1006.3 hPa South 12.4 km/h 25.9 km/h 49 % 0 mm
18:08 29.3 °C 17.8 °C 1006.3 hPa SE 13 km/h 17.7 km/h 50 % 0 mm
18:13 29.2 °C 18 °C 1006.3 hPa SE 15.3 km/h 20.9 km/h 51 % 0 mm
18:18 29.1 °C 18.3 °C 1006.3 hPa SSE 14 km/h 24.1 km/h 52 % 0 mm
18:23 28.9 °C 18.1 °C 1006.3 hPa SSE 19 km/h 27.8 km/h 52 % 0 mm
18:28 28.9 °C 18.1 °C 1006.3 hPa SE 14.3 km/h 25.9 km/h 52 % 0 mm
18:33 28.8 °C 18 °C 1006.3 hPa SSE 14.8 km/h 18.5 km/h 52 % 0 mm
18:38 28.7 °C 17.8 °C 1006.3 hPa SSE 14.6 km/h 20.4 km/h 52 % 0 mm
18:43 28.7 °C 18.2 °C 1006.3 hPa ESE 10.3 km/h 14.8 km/h 53 % 0 mm
18:48 28.5 °C 19.2 °C 1006.3 hPa SE 14.6 km/h 24.1 km/h 57 % 0 mm
18:53 28.4 °C 19.1 °C 1006.3 hPa SE 9.5 km/h 14.8 km/h 57 % 0 mm
18:58 28.4 °C 19.1 °C 1006.3 hPa SE 16.6 km/h 25.9 km/h 57 % 0 mm
19:03 28.4 °C 19.3 °C 1006.3 hPa SE 22.2 km/h 27.8 km/h 58 % 0 mm
19:08 28.3 °C 19.5 °C 1006.3 hPa SE 12.9 km/h 20.4 km/h 59 % 0 mm
19:13 28.1 °C 19.6 °C 1006.3 hPa SE 12.2 km/h 22.2 km/h 60 % 0 mm
19:18 28 °C 19.8 °C 1006.3 hPa SE 13.7 km/h 18.5 km/h 61 % 0 mm
19:23 27.9 °C 19.9 °C 1006.3 hPa SSE 14.2 km/h 20.4 km/h 62 % 0 mm
19:28 27.7 °C 19.8 °C 1006.3 hPa SE 18.3 km/h 24.1 km/h 62 % 0 mm
19:33 27.5 °C 19.8 °C 1006.7 hPa SSE 21.1 km/h 27.4 km/h 63 % 0 mm
19:38 27.2 °C 19.6 °C 1006.7 hPa SE 18.3 km/h 22.2 km/h 63 % 0 mm
19:44 27.1 °C 19.7 °C 1007 hPa SE 16.9 km/h 24.1 km/h 64 % 0 mm
19:49 27 °C 19.3 °C 1007 hPa SE 13 km/h 18.5 km/h 63 % 0 mm
19:54 26.9 °C 19.3 °C 1007.3 hPa SSE 10.6 km/h 14.8 km/h 63 % 0 mm
19:59 26.9 °C 18.8 °C 1007.3 hPa SE 9.7 km/h 18.5 km/h 61 % 0 mm
20:04 27 °C 18.8 °C 1007.3 hPa SSE 11.3 km/h 16.7 km/h 61 % 0 mm
20:09 27 °C 18.6 °C 1007.3 hPa SE 6.8 km/h 11.1 km/h 60 % 0 mm
20:14 26.9 °C 17.9 °C 1007.3 hPa SE 11.6 km/h 17.7 km/h 58 % 0 mm
20:19 26.7 °C 17.7 °C 1007.3 hPa SE 10.3 km/h 14.8 km/h 58 % 0 mm
20:24 26.3 °C 17.4 °C 1007.3 hPa SE 12.1 km/h 22.2 km/h 58 % 0 mm
20:29 26.1 °C 17.4 °C 1007.3 hPa SE 10.8 km/h 18.5 km/h 59 % 0 mm
20:34 25.9 °C 17.6 °C 1007.3 hPa SE 10.5 km/h 14.8 km/h 60 % 0 mm
20:39 25.7 °C 17.4 °C 1007.3 hPa SE 11.6 km/h 14.8 km/h 60 % 0 mm
20:44 25.6 °C 17.6 °C 1007.3 hPa SE 4 km/h 7.4 km/h 61 % 0 mm
20:49 25.5 °C 17.4 °C 1007.7 hPa SE 6.8 km/h 14.5 km/h 61 % 0 mm
20:54 25.4 °C 17.6 °C 1007.7 hPa SE 9.5 km/h 13 km/h 62 % 0 mm
20:59 25.3 °C 17.5 °C 1007.7 hPa SE 6.4 km/h 11.1 km/h 62 % 0 mm
21:04 25.2 °C 17.4 °C 1007.7 hPa SE 8.9 km/h 13 km/h 62 % 0 mm
21:09 25.1 °C 17.3 °C 1007.7 hPa SE 5 km/h 11.1 km/h 62 % 0 mm
21:14 25 °C 17.2 °C 1007.7 hPa SE 4.5 km/h 7.4 km/h 62 % 0 mm
21:19 24.9 °C 17.3 °C 1007.7 hPa SE 4.3 km/h 7.4 km/h 63 % 0 mm
21:24 24.8 °C 17.3 °C 1007.7 hPa SE 3.1 km/h 7.4 km/h 63 % 0 mm
21:29 24.7 °C 17.2 °C 1007.7 hPa SE 6.4 km/h 9.3 km/h 63 % 0 mm
21:34 24.6 °C 17.3 °C 1007.7 hPa SE 5.1 km/h 9.3 km/h 64 % 0 mm
21:39 24.5 °C 17.2 °C 1007.7 hPa SE 4.2 km/h 5.6 km/h 64 % 0 mm
21:44 24.4 °C 17.4 °C 1007.7 hPa SE 4.7 km/h 11.1 km/h 65 % 0 mm
21:49 24.4 °C 17.4 °C 1007.7 hPa SE 3.5 km/h 5.6 km/h 65 % 0 mm
21:54 24.3 °C 17.3 °C 1007.7 hPa SE 6.6 km/h 9.3 km/h 65 % 0 mm
21:59 24.2 °C 17.2 °C 1007.7 hPa SE 6.6 km/h 11.1 km/h 65 % 0 mm
22:04 24.2 °C 17.2 °C 1007.7 hPa SE 6.3 km/h 9.3 km/h 65 % 0 mm
22:09 24.2 °C 17.2 °C 1008 hPa SE 3.4 km/h 9.3 km/h 65 % 0 mm
22:14 24.2 °C 17.4 °C 1008 hPa SE 6 km/h 8 km/h 66 % 0 mm
22:19 24.1 °C 17.3 °C 1008 hPa SE 3.9 km/h 9.3 km/h 66 % 0 mm
22:24 24 °C 17.3 °C 1008 hPa SE 4.7 km/h 8 km/h 66 % 0 mm
22:29 23.9 °C 17.2 °C 1008 hPa SE 6.3 km/h 9.3 km/h 66 % 0 mm
22:34 23.8 °C 17.1 °C 1008 hPa SE 7.4 km/h 9.3 km/h 66 % 0 mm
22:39 23.7 °C 17.2 °C 1008 hPa SE 3.7 km/h 9.3 km/h 67 % 0 mm
22:44 23.6 °C 17.1 °C 1008 hPa SE 6.9 km/h 11.1 km/h 67 % 0 mm
22:49 23.5 °C 17 °C 1008 hPa SE 10.1 km/h 13 km/h 67 % 0 mm
22:54 23.4 °C 17.2 °C 1007.7 hPa SSE 6.8 km/h 8 km/h 68 % 0 mm
22:59 23.3 °C 17.1 °C 1007.7 hPa SSE 5.1 km/h 7.4 km/h 68 % 0 mm
23:04 23.2 °C 16.9 °C 1007.7 hPa SSE 9.5 km/h 13 km/h 68 % 0 mm
23:09 23.1 °C 16.8 °C 1007.7 hPa SSE 7.9 km/h 11.3 km/h 68 % 0 mm
23:14 22.9 °C 16.9 °C 1007.7 hPa SSE 9.3 km/h 13 km/h 69 % 0 mm
23:19 22.8 °C 17 °C 1007.7 hPa SSE 8.2 km/h 13 km/h 70 % 0 mm
23:24 22.7 °C 17.2 °C 1007.7 hPa SSW 8 km/h 16.7 km/h 71 % 0 mm
23:29 22.6 °C 17.1 °C 1007.7 hPa North 8.7 km/h 11.3 km/h 71 % 0 mm
23:34 22.5 °C 17.2 °C 1007.7 hPa North 6.3 km/h 11.3 km/h 72 % 0 mm
23:39 22.4 °C 17.1 °C 1007.7 hPa SSW 7.7 km/h 13 km/h 72 % 0 mm
23:44 22.2 °C 17.2 °C 1008 hPa North 8.9 km/h 11.1 km/h 73 % 0 mm
23:49 21.9 °C 16.8 °C 1008 hPa SSW 10.3 km/h 12.9 km/h 73 % 0 mm
23:54 21.5 °C 16.4 °C 1008 hPa North 8.2 km/h 14.8 km/h 73 % 0 mm
23:59 21.1 °C 16 °C 1008 hPa SSW 12.2 km/h 16.7 km/h 73 % 0 mm
Ararat Weather
Compliments of Weather Underground - 2 mb
Click here to send mail.


ABOUT

Live weather data from Ararat, Victoria, Australia, 3377
Data uploaded from Cumulus every 5 minutes to Weather Underground.
This site then downloads the raw data for formatting and display.
Metric and imperial data can be displayed. Graphs and historical data available.
Includes Sun and Moon times and rain image live from BOM.

Check out Ararat Weather on Facebook, Twitter and Google +

Help support ongoing costs by checking out the ads





Follow @AraratWeather